createdAt,value
2022-10-01T00:00:50.587Z,101098.73
2022-10-01T00:04:22.992Z,101094.00
2022-10-01T00:07:59.463Z,101088.20
2022-10-01T00:11:36.713Z,101090.13
2022-10-01T00:15:16.513Z,101089.44
2022-10-01T00:22:26.658Z,101088.02
2022-10-01T00:26:17.934Z,101086.25
2022-10-01T00:29:41.238Z,101084.15
2022-10-01T00:33:17.158Z,101078.52
2022-10-01T00:36:53.890Z,101077.28
2022-10-01T00:40:31.573Z,101073.59
2022-10-01T00:44:35.073Z,101072.88
2022-10-01T00:47:56.131Z,101071.48
2022-10-01T00:51:21.466Z,101071.63
2022-10-01T00:55:02.972Z,101070.06
2022-10-01T00:58:35.173Z,101071.11
2022-10-01T01:02:12.282Z,101064.41
2022-10-01T01:05:50.431Z,101063.02
2022-10-01T01:13:09.612Z,101061.60
2022-10-01T01:16:50.613Z,101060.90
2022-10-01T01:20:29.204Z,101057.57
2022-10-01T01:24:04.555Z,101058.77
2022-10-01T01:27:53.894Z,101056.30
2022-10-01T01:31:11.138Z,101052.23
2022-10-01T01:34:49.140Z,101049.27
2022-10-01T01:38:24.698Z,101046.09
2022-10-01T01:42:01.318Z,101045.73
2022-10-01T01:45:36.521Z,101044.48
2022-10-01T01:49:09.994Z,101041.31
2022-10-01T01:56:24.108Z,101036.74
2022-10-01T02:00:02.752Z,101037.45
2022-10-01T02:03:37.126Z,101034.98
2022-10-01T02:07:26.515Z,101029.01
2022-10-01T02:11:05.716Z,101027.78
2022-10-01T02:14:55.309Z,101030.95
2022-10-01T02:18:33.839Z,101030.06
2022-10-01T02:22:11.783Z,101031.30
2022-10-01T02:25:28.685Z,101030.95
2022-10-01T02:29:06.915Z,101034.27
2022-10-01T02:32:40.887Z,101031.29
2022-10-01T02:36:16.426Z,101029.89
2022-10-01T02:39:53.173Z,101015.86
2022-10-01T02:43:46.111Z,101020.23
2022-10-01T02:47:15.982Z,101017.79
2022-10-01T02:50:50.551Z,101016.20
2022-10-01T02:54:32.074Z,101018.46
2022-10-01T02:57:55.957Z,101015.84
2022-10-01T03:01:32.162Z,101010.04
2022-10-01T03:05:09.249Z,101012.68
2022-10-01T03:08:45.394Z,101006.71
2022-10-01T03:12:23.647Z,101007.21
2022-10-01T03:15:59.186Z,101004.41
2022-10-01T03:23:12.579Z,101001.40
2022-10-01T03:26:49.986Z,100995.80
2022-10-01T03:30:27.306Z,100990.55
2022-10-01T03:34:02.972Z,100987.74
2022-10-01T03:37:39.559Z,100988.98
2022-10-01T03:41:16.545Z,100987.39
2022-10-01T03:44:53.281Z,100986.16
2022-10-01T03:48:30.684Z,100986.35
2022-10-01T03:52:06.895Z,100981.43
2022-10-01T03:55:43.693Z,100976.88
2022-10-01T03:59:21.524Z,100975.13
2022-10-01T04:02:57.519Z,100975.31
2022-10-01T04:06:34.648Z,100974.27
2022-10-01T04:10:11.028Z,100969.89
2022-10-01T04:13:48.068Z,100966.04
2022-10-01T04:17:24.640Z,100968.50
2022-10-01T04:21:01.255Z,100966.56
2022-10-01T04:24:38.142Z,100970.24
2022-10-01T04:28:14.940Z,100968.67
2022-10-01T04:31:54.013Z,100971.83
2022-10-01T04:35:29.231Z,100967.98
2022-10-01T04:39:05.372Z,100968.86
2022-10-01T04:42:43.772Z,100968.52
2022-10-01T04:46:18.822Z,100966.76
2022-10-01T04:49:55.360Z,100969.56
2022-10-01T04:53:32.585Z,100967.45
2022-10-01T04:57:09.407Z,100967.29
2022-10-01T05:00:46.098Z,100963.79
2022-10-01T05:04:22.890Z,100965.20
2022-10-01T05:08:00.012Z,100972.73
2022-10-01T05:11:36.729Z,100976.59
2022-10-01T05:15:13.659Z,100975.91
2022-10-01T05:18:50.249Z,100974.66
2022-10-01T05:22:26.601Z,100976.59
2022-10-01T05:26:07.598Z,100979.21
2022-10-01T05:29:41.756Z,100975.37
2022-10-01T05:33:17.136Z,100980.28
2022-10-01T05:36:55.170Z,100973.10
2022-10-01T05:40:31.477Z,100975.22
2022-10-01T05:44:07.996Z,100974.53
2022-10-01T05:47:44.691Z,100971.56
2022-10-01T05:51:20.754Z,100961.94
2022-10-01T05:54:57.571Z,100959.01
2022-10-01T05:58:35.319Z,100956.05
2022-10-01T06:02:11.223Z,100951.33
2022-10-01T06:09:25.479Z,100942.58
2022-10-01T06:13:02.620Z,100945.88
2022-10-01T06:16:40.419Z,100940.21
2022-10-01T06:20:17.605Z,100938.60
2022-10-01T06:23:52.960Z,100934.33
2022-10-01T06:27:28.906Z,100929.88
2022-10-01T06:31:06.483Z,100928.36
2022-10-01T06:34:42.732Z,100920.98
2022-10-01T06:38:21.838Z,100915.35
2022-10-01T06:41:56.025Z,100916.38
2022-10-01T06:45:32.680Z,100914.62
2022-10-01T06:49:09.738Z,100914.30
2022-10-01T06:56:23.282Z,100901.44
2022-10-01T07:00:00.328Z,100893.05
2022-10-01T07:03:36.779Z,100891.80
2022-10-01T07:07:13.616Z,100891.65
2022-10-01T07:10:50.709Z,100891.16
2022-10-01T07:14:27.057Z,100884.85
2022-10-01T07:18:04.855Z,100883.50
2022-10-01T07:21:40.540Z,100880.80
2022-10-01T07:25:18.065Z,100874.10
2022-10-01T07:28:55.555Z,100870.36
2022-10-01T07:32:31.952Z,100869.48
2022-10-01T07:36:11.062Z,100866.83
2022-10-01T07:39:44.608Z,100862.57
2022-10-01T07:43:22.376Z,100863.15
2022-10-01T07:46:58.405Z,100858.39
2022-10-01T07:50:35.210Z,100852.42
2022-10-01T07:54:12.134Z,100847.91
2022-10-01T07:57:55.644Z,100845.66
2022-10-01T08:01:25.980Z,100844.13
2022-10-01T08:05:20.687Z,100833.38
2022-10-01T08:08:39.461Z,100834.12
2022-10-01T08:12:17.882Z,100830.19
2022-10-01T08:15:54.904Z,100830.55
2022-10-01T08:19:30.321Z,100830.51
2022-10-01T08:23:11.805Z,100826.52
2022-10-01T08:26:44.009Z,100825.95
2022-10-01T08:30:20.053Z,100820.38
2022-10-01T08:33:57.211Z,100816.48
2022-10-01T08:37:33.484Z,100814.88
2022-10-01T08:41:23.384Z,100811.25
2022-10-01T08:44:47.253Z,100805.17
2022-10-01T08:49:02.077Z,100798.55
2022-10-01T08:52:07.112Z,100792.59
2022-10-01T08:55:42.172Z,100795.89
2022-10-01T08:59:33.953Z,100795.18
2022-10-01T09:02:53.086Z,100795.09
2022-10-01T09:06:30.164Z,100788.48
2022-10-01T09:10:36.672Z,100781.07
2022-10-01T09:14:20.276Z,100774.84
2022-10-01T09:17:44.907Z,100770.31
2022-10-01T09:21:21.301Z,100764.06
2022-10-01T09:25:10.209Z,100756.33
2022-10-01T09:28:32.683Z,100748.52
2022-10-01T09:32:04.124Z,100746.17
2022-10-01T09:35:49.647Z,100744.05
2022-10-01T09:39:30.140Z,100738.41
2022-10-01T09:42:52.162Z,100730.81
2022-10-01T09:46:28.906Z,100726.75
2022-10-01T09:50:06.921Z,100723.93
2022-10-01T09:53:52.194Z,100722.38
2022-10-01T09:57:28.955Z,100714.67
2022-10-01T10:00:56.713Z,100716.63
2022-10-01T10:04:33.241Z,100711.23
2022-10-01T10:08:13.749Z,100718.67
2022-10-01T10:11:46.053Z,100711.14
2022-10-01T10:15:26.629Z,100704.30
2022-10-01T10:19:14.101Z,100700.02
2022-10-01T10:22:36.364Z,100694.67
2022-10-01T10:26:21.191Z,100690.28
2022-10-01T10:29:49.838Z,100687.80
2022-10-01T10:33:27.029Z,100680.33
2022-10-01T10:37:07.310Z,100680.05
2022-10-01T10:40:45.896Z,100679.98
2022-10-01T10:44:22.496Z,100670.27
2022-10-01T10:47:53.961Z,100669.42
2022-10-01T10:51:42.794Z,100663.85
2022-10-01T10:55:31.764Z,100660.47
2022-10-01T10:58:45.573Z,100656.75
2022-10-01T11:02:24.084Z,100651.79
2022-10-01T11:06:11.893Z,100648.94
2022-10-01T11:09:43.895Z,100640.37
2022-10-01T11:13:50.072Z,100634.66
2022-10-01T11:17:18.847Z,100627.13
2022-10-01T11:20:35.244Z,100623.86
2022-10-01T11:24:33.377Z,100620.61
2022-10-01T11:28:03.715Z,100605.73
2022-10-01T11:31:19.103Z,100604.69
2022-10-01T11:35:13.169Z,100601.65
2022-10-01T11:38:59.165Z,100592.23
2022-10-01T11:42:16.196Z,100584.72
2022-10-01T11:45:51.965Z,100574.95
2022-10-01T11:49:42.934Z,100574.89
2022-10-01T11:53:12.294Z,100571.34
2022-10-01T11:57:00.644Z,100563.16
2022-10-01T12:00:14.316Z,100558.15
2022-10-01T12:03:53.629Z,100557.38
2022-10-01T12:07:53.426Z,100555.70
2022-10-01T12:11:24.693Z,100546.77
2022-10-01T12:14:45.526Z,100550.73
2022-10-01T12:18:23.273Z,100549.93
2022-10-01T12:22:15.775Z,100540.36
2022-10-01T12:25:51.728Z,100541.46
2022-10-01T12:29:44.980Z,100538.77
2022-10-01T12:33:35.814Z,100532.13
2022-10-01T12:37:26.370Z,100530.64
2022-10-01T12:40:38.753Z,100525.63
2022-10-01T12:44:34.438Z,100520.89
2022-10-01T12:48:07.743Z,100517.15
2022-10-01T12:51:40.919Z,100509.14
2022-10-01T12:55:05.557Z,100498.61
2022-10-01T12:59:12.538Z,100503.98
2022-10-01T13:02:51.391Z,100492.34
2022-10-01T13:06:19.662Z,100495.26
2022-10-01T13:10:01.654Z,100494.65
2022-10-01T13:13:23.692Z,100489.92
2022-10-01T13:17:32.610Z,100489.98
2022-10-01T13:21:10.353Z,100482.29
2022-10-01T13:24:39.049Z,100473.14
2022-10-01T13:28:11.073Z,100472.09
2022-10-01T13:31:51.761Z,100469.83
2022-10-01T13:35:24.133Z,100462.35
2022-10-01T13:38:52.000Z,100457.05
2022-10-01T13:42:37.186Z,100455.10
2022-10-01T13:46:09.467Z,100447.52
2022-10-01T13:49:42.765Z,100442.35
2022-10-01T13:53:23.605Z,100443.41
2022-10-01T13:57:08.894Z,100442.64
2022-10-01T14:00:33.963Z,100438.05
2022-10-01T14:04:34.537Z,100436.46
2022-10-01T14:07:50.427Z,100432.77
2022-10-01T14:11:45.273Z,100432.77
2022-10-01T14:15:41.691Z,100425.06
2022-10-01T14:18:56.493Z,100423.69
2022-10-01T14:23:00.294Z,100420.39
2022-10-01T14:26:47.527Z,100414.96
2022-10-01T14:30:07.770Z,100412.73
2022-10-01T14:33:55.545Z,100408.06
2022-10-01T14:37:01.336Z,100402.45
2022-10-01T14:40:41.585Z,100398.63
2022-10-01T14:44:29.151Z,100394.27
2022-10-01T14:48:07.440Z,100394.52
2022-10-01T14:51:31.391Z,100394.95
2022-10-01T14:55:08.485Z,100389.02
2022-10-01T14:58:49.553Z,100389.38
2022-10-01T15:02:21.301Z,100387.50
2022-10-01T15:06:04.259Z,100382.40
2022-10-01T15:09:34.150Z,100382.45
2022-10-01T15:13:11.052Z,100378.98
2022-10-01T15:16:46.445Z,100377.48
2022-10-01T15:20:23.166Z,100374.71
2022-10-01T15:24:04.572Z,100365.24
2022-10-01T15:27:36.186Z,100369.35
2022-10-01T15:31:13.139Z,100366.42
2022-10-01T15:34:54.227Z,100361.89
2022-10-01T15:38:30.174Z,100361.27
2022-10-01T15:42:21.692Z,100357.26
2022-10-01T15:45:41.113Z,100350.93
2022-10-01T15:49:24.781Z,100346.05
2022-10-01T15:53:18.031Z,100337.98
2022-10-01T15:56:30.475Z,100338.73
2022-10-01T16:00:20.358Z,100339.96
2022-10-01T16:03:52.644Z,100336.23
2022-10-01T16:07:26.444Z,100335.02
2022-10-01T16:11:18.194Z,100333.67
2022-10-01T16:14:59.105Z,100328.60
2022-10-01T16:18:22.738Z,100329.70
2022-10-01T16:22:15.629Z,100326.91
2022-10-01T16:25:33.246Z,100325.89
2022-10-01T16:29:27.729Z,100320.98
2022-10-01T16:32:38.888Z,100321.72
2022-10-01T16:36:20.316Z,100318.77
2022-10-01T16:39:51.934Z,100316.33
2022-10-01T16:43:28.813Z,100310.56
2022-10-01T16:47:07.666Z,100312.70
2022-10-01T16:50:47.906Z,100303.04
2022-10-01T16:54:27.172Z,100300.62
2022-10-01T16:57:56.150Z,100304.48
2022-10-01T17:01:32.634Z,100296.21
2022-10-01T17:05:25.597Z,100288.45
2022-10-01T17:08:46.515Z,100283.02
2022-10-01T17:12:22.845Z,100278.64
2022-10-01T17:16:06.002Z,100277.62
2022-10-01T17:19:37.082Z,100272.20
2022-10-01T17:23:19.634Z,100275.20
2022-10-01T17:26:50.225Z,100268.33
2022-10-01T17:30:29.615Z,100262.73
2022-10-01T17:34:05.031Z,100259.58
2022-10-01T17:37:41.713Z,100256.08
2022-10-01T17:41:17.491Z,100260.84
2022-10-01T17:44:55.100Z,100260.54
2022-10-01T17:48:31.505Z,100260.80
2022-10-01T17:52:08.035Z,100268.89
2022-10-01T17:55:47.074Z,100265.92
2022-10-01T17:59:22.172Z,100263.33
2022-10-01T18:03:00.491Z,100268.10
2022-10-01T18:06:35.587Z,100264.09
2022-10-01T18:10:13.720Z,100265.89
2022-10-01T18:13:48.900Z,100263.64
2022-10-01T18:17:25.407Z,100261.35
2022-10-01T18:21:06.013Z,100257.68
2022-10-01T18:24:38.986Z,100256.40
2022-10-01T18:28:15.893Z,100256.39
2022-10-01T18:31:56.372Z,100253.04
2022-10-01T18:35:57.007Z,100251.45
2022-10-01T18:39:15.513Z,100247.60
2022-10-01T18:42:57.908Z,100246.39
2022-10-01T18:46:29.049Z,100243.58
2022-10-01T18:50:13.512Z,100247.83
2022-10-01T18:53:46.214Z,100249.69
2022-10-01T18:57:47.548Z,100250.52
2022-10-01T19:00:59.074Z,100249.27
2022-10-01T19:04:23.945Z,100241.64
2022-10-01T19:08:26.792Z,100234.80
2022-10-01T19:12:02.243Z,100230.92
2022-10-01T19:15:39.915Z,100235.61
2022-10-01T19:19:14.886Z,100233.38
2022-10-01T19:22:49.034Z,100229.94
2022-10-01T19:26:21.905Z,100231.30
2022-10-01T19:30:11.956Z,100227.73
2022-10-01T19:33:26.194Z,100226.30
2022-10-01T19:37:26.860Z,100223.73
2022-10-01T19:40:54.051Z,100222.18
2022-10-01T19:44:35.160Z,100223.14
2022-10-01T19:48:08.123Z,100217.52
2022-10-01T19:51:57.310Z,100215.58
2022-10-01T19:55:15.661Z,100216.92
2022-10-01T19:58:45.705Z,100215.30
2022-10-01T20:02:47.254Z,100210.80
2022-10-01T20:06:21.835Z,100207.77
2022-10-01T20:10:10.596Z,100221.85
2022-10-01T20:13:38.558Z,100222.66
2022-10-01T20:17:06.899Z,100224.35
2022-10-01T20:21:01.094Z,100222.42
2022-10-01T20:24:51.834Z,100221.33
2022-10-01T20:28:40.334Z,100219.20
2022-10-01T20:32:11.713Z,100219.64
2022-10-01T20:35:55.990Z,100222.27
2022-10-01T20:39:18.044Z,100222.88
2022-10-01T20:42:49.100Z,100221.77
2022-10-01T20:46:34.157Z,100222.14
2022-10-01T20:50:09.336Z,100223.05
2022-10-01T20:53:45.885Z,100221.39
2022-10-01T20:57:20.433Z,100221.66
2022-10-01T21:00:49.694Z,100220.95
2022-10-01T21:04:38.684Z,100219.73
2022-10-01T21:08:11.241Z,100222.04
2022-10-01T21:11:54.233Z,100221.90
2022-10-01T21:15:15.564Z,100222.06
2022-10-01T21:19:17.549Z,100221.42
2022-10-01T21:22:40.711Z,100215.86
2022-10-01T21:26:10.991Z,100220.79
2022-10-01T21:30:09.053Z,100218.95
2022-10-01T21:33:25.234Z,100221.26
2022-10-01T21:37:14.458Z,100222.70
2022-10-01T21:40:46.228Z,100224.09
2022-10-01T21:44:31.493Z,100222.58
2022-10-01T21:47:55.137Z,100227.16
2022-10-01T21:51:59.754Z,100229.11
2022-10-01T21:55:50.294Z,100229.84
2022-10-01T21:59:07.945Z,100227.55
2022-10-01T22:02:43.020Z,100226.22
2022-10-01T22:06:13.513Z,100224.67
2022-10-01T22:10:02.302Z,100223.63
2022-10-01T22:13:25.551Z,100229.33
2022-10-01T22:17:03.678Z,100231.80
2022-10-01T22:20:35.123Z,100236.73
2022-10-01T22:24:10.637Z,100226.89
2022-10-01T22:27:54.250Z,100228.07
2022-10-01T22:38:57.256Z,100230.41
2022-10-01T22:42:33.689Z,100227.85
2022-10-01T22:46:04.669Z,100228.11
2022-10-01T22:50:08.249Z,100216.56
2022-10-01T22:53:31.051Z,100215.77
2022-10-01T22:57:21.050Z,100214.17
2022-10-01T23:00:54.281Z,100219.32
2022-10-01T23:04:15.440Z,100223.20
2022-10-01T23:07:51.847Z,100227.25
2022-10-01T23:11:36.646Z,100228.79
2022-10-01T23:15:20.695Z,100223.80
2022-10-01T23:18:48.386Z,100217.79
2022-10-01T23:22:19.166Z,100223.54
2022-10-01T23:26:04.744Z,100220.73
2022-10-01T23:30:01.464Z,100218.80
2022-10-01T23:33:45.934Z,100217.56
2022-10-01T23:37:27.049Z,100213.84
2022-10-01T23:40:41.683Z,100215.08
2022-10-01T23:44:20.804Z,100215.39
2022-10-01T23:48:20.802Z,100214.60
2022-10-01T23:51:46.978Z,100218.04
2022-10-01T23:56:07.765Z,100219.45
2022-10-01T23:59:37.721Z,100224.15
